Time;durP1;ratioP1;P1;durP2;ratioP2;P2;SDS_P1;SDS_P2;PMS_P1;PMS_P2;Temp;Humidity;BMP_temperature;BMP_pressure;BME280_temperature;BME280_humidity;BME280_pressure;Samples;Min_cycle;Max_cycle;Signal;HPM_P1;HPM_P2
2022/11/13 00:00:53;;;;;;;100.43;56.63;;;;;;;;;;4984845;28;20066;-75
2022/11/13 00:03:19;;;;;;;88.85;48.95;;;;;;;;;;5000397;28;20068;-75
2022/11/13 00:05:45;;;;;;;87.88;49.05;;;;;;;;;;5004557;28;20038;-76
2022/11/13 00:08:11;;;;;;;88.05;50.35;;;;;;;;;;5005984;28;20033;-76
2022/11/13 00:10:37;;;;;;;87.55;48.25;;;;;;;;;;5002563;28;20038;-77
2022/11/13 00:13:03;;;;;;;100.03;51.42;;;;;;;;;;4981727;28;20178;-77
2022/11/13 00:15:29;;;;;;;99.38;52.80;;;;;;;;;;5001591;28;20034;-76
2022/11/13 00:17:55;;;;;;;95.47;52.58;;;;;;;;;;4982442;28;20102;-76
2022/11/13 00:20:21;;;;;;;92.43;50.38;;;;;;;;;;5000684;28;20068;-76
2022/11/13 00:22:47;;;;;;;95.57;51.53;;;;;;;;;;4997225;28;20042;-76
2022/11/13 00:25:13;;;;;;;99.95;54.47;;;;;;;;;;4998161;28;20053;-75
2022/11/13 00:27:39;;;;;;;113.85;56.15;;;;;;;;;;4980114;28;20026;-76
2022/11/13 00:30:05;;;;;;;112.65;58.45;;;;;;;;;;4997028;28;20034;-76
2022/11/13 00:32:31;;;;;;;101.35;54.47;;;;;;;;;;4991415;28;20161;-78
2022/11/13 00:34:57;;;;;;;106.63;55.38;;;;;;;;;;4991600;28;20070;-77
2022/11/13 00:37:23;;;;;;;115.97;58.83;;;;;;;;;;4964878;28;20270;-76
2022/11/13 00:39:49;;;;;;;116.32;59.25;;;;;;;;;;4988945;28;20045;-77
2022/11/13 00:42:15;;;;;;;121.30;59.97;;;;;;;;;;4989912;28;20018;-77
2022/11/13 00:44:41;;;;;;;117.20;59.35;;;;;;;;;;4989688;28;20490;-76
2022/11/13 00:47:07;;;;;;;123.57;59.20;;;;;;;;;;4985352;28;20035;-77
2022/11/13 00:49:33;;;;;;;119.22;59.97;;;;;;;;;;4989581;28;20026;-77
2022/11/13 00:52:01;;;;;;;114.53;59.38;;;;;;;;;;4990223;28;20572;-76
2022/11/13 00:54:27;;;;;;;122.03;61.30;;;;;;;;;;4991175;28;20073;-76
2022/11/13 00:56:53;;;;;;;114.38;59.50;;;;;;;;;;4986524;28;20597;-76
2022/11/13 00:59:19;;;;;;;117.70;59.35;;;;;;;;;;4991878;28;20039;-76
2022/11/13 01:01:45;;;;;;;118.85;57.35;;;;;;;;;;4989332;28;20037;-76
2022/11/13 01:04:11;;;;;;;111.78;59.67;;;;;;;;;;4990605;28;20038;-76
2022/11/13 01:06:37;;;;;;;128.70;61.45;;;;;;;;;;4988011;28;20031;-76
2022/11/13 01:09:04;;;;;;;129.90;62.65;;;;;;;;;;4973677;28;20045;-76
2022/11/13 01:11:30;;;;;;;130.02;65.95;;;;;;;;;;4989465;28;20034;-76
2022/11/13 01:13:56;;;;;;;139.52;69.70;;;;;;;;;;4990635;28;20097;-76
2022/11/13 01:16:23;;;;;;;147.00;73.70;;;;;;;;;;4990479;28;20030;-76
2022/11/13 01:18:49;;;;;;;153.35;76.43;;;;;;;;;;4971269;28;20065;-76
2022/11/13 01:21:17;;;;;;;154.45;79.35;;;;;;;;;;4980162;28;20030;-76
2022/11/13 01:23:43;;;;;;;151.35;78.80;;;;;;;;;;4985323;28;20091;-76
2022/11/13 01:26:13;;;;;;;154.35;80.25;;;;;;;;;;4989711;28;20042;-76
2022/11/13 01:28:39;;;;;;;161.00;82.50;;;;;;;;;;4971633;28;20034;-77
2022/11/13 01:31:10;;;;;;;152.82;78.95;;;;;;;;;;5007371;28;20038;-76
2022/11/13 01:33:36;;;;;;;154.88;77.95;;;;;;;;;;4987893;28;20571;-77
2022/11/13 01:36:07;;;;;;;148.77;76.25;;;;;;;;;;4973669;28;20502;-77
2022/11/13 01:38:34;;;;;;;;;;;;;;;;;;4985717;28;20482;-77
2022/11/13 01:41:00;;;;;;;146.10;73.50;;;;;;;;;;4990660;28;19916;-76
2022/11/13 01:43:28;;;;;;;161.73;76.13;;;;;;;;;;4966666;28;20125;-76
2022/11/13 01:45:59;;;;;;;158.85;77.05;;;;;;;;;;4986067;28;20117;-77
2022/11/13 01:48:28;;;;;;;157.85;72.20;;;;;;;;;;4992704;28;20026;-76
2022/11/13 01:50:54;;;;;;;142.00;72.28;;;;;;;;;;4993744;28;20241;-75
2022/11/13 01:53:20;;;;;;;153.40;75.95;;;;;;;;;;4992689;28;20037;-76
2022/11/13 01:55:46;;;;;;;141.40;70.05;;;;;;;;;;4995002;28;20030;-76
2022/11/13 01:58:12;;;;;;;129.85;68.30;;;;;;;;;;4995457;28;20010;-77
2022/11/13 02:00:38;;;;;;;134.50;68.88;;;;;;;;;;4976501;28;20482;-78
2022/11/13 02:03:05;;;;;;;132.88;68.25;;;;;;;;;;4997177;28;20041;-77
2022/11/13 02:05:31;;;;;;;143.80;69.22;;;;;;;;;;5004260;28;20029;-77
2022/11/13 02:07:57;;;;;;;148.57;78.22;;;;;;;;;;4998879;28;20243;-78
2022/11/13 02:10:23;;;;;;;156.00;74.05;;;;;;;;;;4997449;28;20291;-78
2022/11/13 02:12:50;;;;;;;150.55;76.50;;;;;;;;;;4982629;28;20042;-78
2022/11/13 02:15:16;;;;;;;139.30;77.03;;;;;;;;;;5003749;28;20038;-77
2022/11/13 02:17:44;;;;;;;142.82;72.30;;;;;;;;;;4995619;28;20034;-78
2022/11/13 02:20:11;;;;;;;127.97;69.60;;;;;;;;;;4996290;28;20035;-78
2022/11/13 02:22:49;;;;;;;135.00;71.43;;;;;;;;;;4996520;28;20505;-77
2022/11/13 02:25:16;;;;;;;119.30;69.30;;;;;;;;;;4997805;28;20030;-78
2022/11/13 02:27:43;;;;;;;123.05;67.75;;;;;;;;;;4979364;28;20066;-78
2022/11/13 02:30:17;;;;;;;114.57;63.92;;;;;;;;;;4996303;28;20030;-78
2022/11/13 02:32:47;;;;;;;119.88;63.85;;;;;;;;;;4988857;28;20489;-78
2022/11/13 02:35:14;;;;;;;124.38;64.50;;;;;;;;;;4987323;28;20085;-78
2022/11/13 02:37:40;;;;;;;123.50;64.38;;;;;;;;;;4985135;28;20015;-78
2022/11/13 02:40:25;;;;;;;110.90;61.92;;;;;;;;;;4988887;28;20060;-78
2022/11/13 02:42:51;;;;;;;116.05;62.92;;;;;;;;;;4986122;28;20069;-78
2022/11/13 02:45:17;;;;;;;110.18;63.97;;;;;;;;;;4967040;28;20096;-78
2022/11/13 02:47:43;;;;;;;118.80;62.08;;;;;;;;;;4987740;28;20034;-77
2022/11/13 02:50:10;;;;;;;119.00;65.40;;;;;;;;;;4986649;28;20511;-78
2022/11/13 02:52:36;;;;;;;117.80;63.28;;;;;;;;;;4969933;28;20046;-78
2022/11/13 02:55:02;;;;;;;116.50;63.50;;;;;;;;;;4989702;28;20050;-78
2022/11/13 02:57:28;;;;;;;121.72;65.20;;;;;;;;;;4986863;28;20053;-77
2022/11/13 02:59:54;;;;;;;201.20;89.18;;;;;;;;;;4989078;28;20038;-78
2022/11/13 03:02:21;;;;;;;152.25;76.57;;;;;;;;;;4985975;28;20474;-77
2022/11/13 03:04:47;;;;;;;136.93;73.35;;;;;;;;;;4971262;28;20080;-79
2022/11/13 03:07:13;;;;;;;141.27;72.45;;;;;;;;;;4997446;28;20078;-78
2022/11/13 03:09:40;;;;;;;148.68;76.00;;;;;;;;;;4991688;28;20038;-79
2022/11/13 03:12:07;;;;;;;150.05;76.20;;;;;;;;;;4982115;28;20117;-77
2022/11/13 03:14:33;;;;;;;141.48;72.47;;;;;;;;;;4984117;28;20027;-77
2022/11/13 03:16:59;;;;;;;132.15;69.93;;;;;;;;;;4985327;28;20541;-77
2022/11/13 03:19:25;;;;;;;139.52;73.63;;;;;;;;;;4987230;28;20078;-79
2022/11/13 03:21:51;;;;;;;136.98;70.28;;;;;;;;;;4953408;28;20512;-77
2022/11/13 03:24:17;;;;;;;130.80;68.38;;;;;;;;;;4990125;28;20440;-77
2022/11/13 03:26:43;;;;;;;132.73;67.78;;;;;;;;;;4990484;28;20117;-77
2022/11/13 03:29:09;;;;;;;127.50;69.82;;;;;;;;;;4994945;28;20057;-77
2022/11/13 03:31:35;;;;;;;124.07;65.05;;;;;;;;;;4992373;28;20058;-77
2022/11/13 03:34:01;;;;;;;133.32;64.75;;;;;;;;;;4996487;28;20097;-77
2022/11/13 03:36:27;;;;;;;145.07;69.63;;;;;;;;;;4998142;28;20105;-77
2022/11/13 03:38:53;;;;;;;147.00;70.03;;;;;;;;;;4998455;28;20038;-77
2022/11/13 03:41:19;;;;;;;136.50;66.80;;;;;;;;;;4982081;28;20508;-77
2022/11/13 03:43:46;;;;;;;122.00;63.00;;;;;;;;;;4978676;28;20031;-78
2022/11/13 03:46:12;;;;;;;118.75;63.85;;;;;;;;;;4985085;28;20041;-78
2022/11/13 03:48:38;;;;;;;129.80;63.97;;;;;;;;;;5005054;28;20022;-79
2022/11/13 03:51:04;;;;;;;130.85;65.85;;;;;;;;;;5001290;28;20088;-79
2022/11/13 03:53:30;;;;;;;134.07;65.30;;;;;;;;;;4997594;28;20045;-78
2022/11/13 03:55:56;;;;;;;128.27;62.70;;;;;;;;;;5002793;28;20031;-79
2022/11/13 03:58:22;;;;;;;121.45;61.95;;;;;;;;;;4998892;28;20015;-79
2022/11/13 04:00:48;;;;;;;121.80;60.10;;;;;;;;;;4983404;28;20113;-78
2022/11/13 04:03:15;;;;;;;116.70;60.13;;;;;;;;;;4992864;28;20026;-79
2022/11/13 04:05:42;;;;;;;114.60;58.53;;;;;;;;;;4977426;28;20038;-78
2022/11/13 04:08:08;;;;;;;122.35;61.65;;;;;;;;;;4989332;28;20042;-77
2022/11/13 04:10:34;;;;;;;120.40;59.28;;;;;;;;;;4990877;28;20031;-78
2022/11/13 04:13:01;;;;;;;114.78;60.60;;;;;;;;;;4989872;28;20038;-78
2022/11/13 04:15:27;;;;;;;119.85;61.25;;;;;;;;;;4969530;28;20023;-79
2022/11/13 04:17:53;;;;;;;129.63;63.35;;;;;;;;;;4986422;28;20228;-78
2022/11/13 04:20:19;;;;;;;124.93;62.42;;;;;;;;;;4970588;28;20027;-78
2022/11/13 04:22:45;;;;;;;122.43;63.17;;;;;;;;;;4988583;28;20038;-79
2022/11/13 04:25:11;;;;;;;122.65;61.05;;;;;;;;;;4957510;28;20034;-79
2022/11/13 04:27:37;;;;;;;110.90;59.00;;;;;;;;;;4987771;28;20485;-78
2022/11/13 04:30:04;;;;;;;108.75;57.85;;;;;;;;;;4949119;28;20061;-78
2022/11/13 04:32:31;;;;;;;106.03;59.22;;;;;;;;;;4973661;28;20085;-77
2022/11/13 04:34:57;;;;;;;98.40;54.97;;;;;;;;;;4990911;28;20038;-79
2022/11/13 04:37:23;;;;;;;105.20;59.92;;;;;;;;;;4990451;28;20101;-78
2022/11/13 04:39:49;;;;;;;96.63;54.75;;;;;;;;;;4971540;28;20129;-78
2022/11/13 04:45:01;;;;;;;97.82;53.75;;;;;;;;;;4988468;28;20041;-77
2022/11/13 04:47:27;;;;;;;101.25;52.28;;;;;;;;;;4989171;28;20066;-77
2022/11/13 04:49:53;;;;;;;88.10;51.38;;;;;;;;;;4990926;28;20150;-77
2022/11/13 04:52:19;;;;;;;87.47;49.47;;;;;;;;;;4970312;28;20426;-77
2022/11/13 04:54:45;;;;;;;91.93;49.20;;;;;;;;;;4989002;28;20089;-78
2022/11/13 04:57:11;;;;;;;99.80;50.55;;;;;;;;;;4990143;28;20042;-77
2022/11/13 04:59:37;;;;;;;97.60;49.60;;;;;;;;;;4989832;28;20034;-77
2022/11/13 05:02:03;;;;;;;99.93;51.65;;;;;;;;;;4991665;28;20041;-78
2022/11/13 05:04:29;;;;;;;99.53;51.55;;;;;;;;;;4997777;28;20505;-77
2022/11/13 05:06:55;;;;;;;98.82;52.08;;;;;;;;;;4979194;28;20018;-77
2022/11/13 05:09:21;;;;;;;96.90;51.08;;;;;;;;;;4996912;28;20135;-77
2022/11/13 05:11:47;;;;;;;86.70;50.30;;;;;;;;;;4999157;28;20046;-77
2022/11/13 05:14:13;;;;;;;94.53;50.08;;;;;;;;;;5006314;28;20446;-77
2022/11/13 05:16:39;;;;;;;94.13;49.10;;;;;;;;;;5009794;28;20049;-77
2022/11/13 05:19:06;;;;;;;95.88;49.13;;;;;;;;;;5006659;28;20085;-78
2022/11/13 05:21:32;;;;;;;86.78;47.50;;;;;;;;;;5001202;28;20038;-77
2022/11/13 05:23:58;;;;;;;81.72;43.47;;;;;;;;;;5004970;28;20049;-77
2022/11/13 05:26:28;;;;;;;79.15;45.10;;;;;;;;;;4999985;28;20068;-78
2022/11/13 05:28:57;;;;;;;89.15;45.10;;;;;;;;;;4996414;28;20207;-78
2022/11/13 05:31:23;;;;;;;85.57;45.08;;;;;;;;;;4993434;28;20030;-78
2022/11/13 05:33:49;;;;;;;85.15;45.28;;;;;;;;;;4997429;28;20496;-78
2022/11/13 05:36:15;;;;;;;83.35;43.67;;;;;;;;;;4993196;28;20095;-78
2022/11/13 05:38:42;;;;;;;88.35;44.85;;;;;;;;;;4993412;28;20489;-77
2022/11/13 05:41:12;;;;;;;74.68;40.70;;;;;;;;;;4973781;28;20026;-77
2022/11/13 05:43:39;;;;;;;90.43;46.25;;;;;;;;;;4988769;28;20026;-78
2022/11/13 05:46:15;;;;;;;102.15;51.05;;;;;;;;;;5000255;28;20050;-77
2022/11/13 05:48:41;;;;;;;105.35;52.70;;;;;;;;;;4992090;28;20064;-77
2022/11/13 05:51:17;;;;;;;111.53;53.03;;;;;;;;;;4969024;28;20094;-77
2022/11/13 05:53:43;;;;;;;107.90;54.80;;;;;;;;;;4987392;28;20038;-77
2022/11/13 05:56:14;;;;;;;101.78;54.40;;;;;;;;;;4990045;28;20038;-77
2022/11/13 05:58:40;;;;;;;105.68;55.45;;;;;;;;;;4990136;28;20077;-77
2022/11/13 06:01:08;;;;;;;105.82;55.70;;;;;;;;;;4971582;28;20038;-77
2022/11/13 06:03:34;;;;;;;102.70;53.20;;;;;;;;;;4989956;28;20033;-78
2022/11/13 06:06:01;;;;;;;106.93;55.30;;;;;;;;;;4991867;28;20033;-78
2022/11/13 06:08:27;;;;;;;102.72;54.63;;;;;;;;;;4991294;28;20030;-77
2022/11/13 06:10:57;;;;;;;112.57;53.90;;;;;;;;;;4991426;28;20045;-78
2022/11/13 06:13:23;;;;;;;100.22;51.25;;;;;;;;;;4973410;28;20073;-78
2022/11/13 06:15:49;;;;;;;100.43;52.85;;;;;;;;;;4987855;28;20038;-78
2022/11/13 06:18:20;;;;;;;95.47;50.78;;;;;;;;;;4988183;28;20091;-78
2022/11/13 06:20:46;;;;;;;97.43;54.53;;;;;;;;;;4972813;28;20095;-78
2022/11/13 06:23:12;;;;;;;94.38;55.38;;;;;;;;;;4992156;28;20077;-78
2022/11/13 06:25:38;;;;;;;105.38;53.28;;;;;;;;;;4990407;28;20033;-77
2022/11/13 06:28:04;;;;;;;101.40;52.60;;;;;;;;;;4988603;28;20038;-78
2022/11/13 06:30:30;;;;;;;101.45;53.17;;;;;;;;;;4977625;28;20494;-77
2022/11/13 06:32:56;;;;;;;104.05;53.00;;;;;;;;;;4962606;28;20050;-78
2022/11/13 06:35:22;;;;;;;98.53;53.10;;;;;;;;;;4995133;28;20018;-78
2022/11/13 06:37:48;;;;;;;94.28;51.60;;;;;;;;;;4980793;28;20374;-78
2022/11/13 06:40:14;;;;;;;91.55;50.22;;;;;;;;;;4999529;28;20041;-78
2022/11/13 06:42:40;;;;;;;92.97;51.38;;;;;;;;;;5000565;28;20074;-76
2022/11/13 06:45:06;;;;;;;88.30;49.67;;;;;;;;;;4979654;28;20046;-77
2022/11/13 06:47:32;;;;;;;84.72;49.05;;;;;;;;;;4997762;28;20172;-77
2022/11/13 06:49:58;;;;;;;85.60;46.72;;;;;;;;;;5010028;28;20010;-78
2022/11/13 06:52:24;;;;;;;90.55;49.03;;;;;;;;;;4994447;28;20026;-71
2022/11/13 06:54:50;;;;;;;84.80;46.70;;;;;;;;;;4995460;28;20073;-78
2022/11/13 06:57:16;;;;;;;77.47;43.83;;;;;;;;;;4981377;28;20011;-78
2022/11/13 06:59:42;;;;;;;84.78;44.95;;;;;;;;;;5000563;28;20045;-78
2022/11/13 07:02:09;;;;;;;83.53;44.85;;;;;;;;;;4997156;28;20034;-77
2022/11/13 07:04:35;;;;;;;87.40;47.00;;;;;;;;;;4997079;28;20053;-78
2022/11/13 07:07:01;;;;;;;93.97;50.05;;;;;;;;;;4995932;28;20026;-77
2022/11/13 07:09:27;;;;;;;97.93;51.80;;;;;;;;;;4985765;28;20071;-78
2022/11/13 07:11:53;;;;;;;92.40;49.55;;;;;;;;;;4992843;28;20030;-77
2022/11/13 07:14:20;;;;;;;90.47;50.83;;;;;;;;;;4993545;28;20406;-77
2022/11/13 07:16:46;;;;;;;112.20;55.00;;;;;;;;;;4988722;28;20497;-77
2022/11/13 07:19:12;;;;;;;107.78;55.45;;;;;;;;;;4992006;28;20041;-77
2022/11/13 07:21:38;;;;;;;108.20;57.55;;;;;;;;;;4986326;28;20030;-77
2022/11/13 07:24:06;;;;;;;109.05;57.53;;;;;;;;;;4988060;28;20141;-78
2022/11/13 07:26:32;;;;;;;106.40;58.67;;;;;;;;;;4968733;28;20514;-78
2022/11/13 07:28:58;;;;;;;97.75;55.88;;;;;;;;;;4973472;28;20046;-77
2022/11/13 07:31:24;;;;;;;111.65;59.17;;;;;;;;;;4973787;28;20045;-77
2022/11/13 07:33:51;;;;;;;119.95;60.33;;;;;;;;;;4991062;28;20520;-77
2022/11/13 07:36:17;;;;;;;96.35;56.72;;;;;;;;;;4983855;28;20105;-77
2022/11/13 07:38:43;;;;;;;103.65;57.95;;;;;;;;;;4990091;28;20022;-77
2022/11/13 07:41:09;;;;;;;105.25;58.28;;;;;;;;;;4988841;28;20485;-79
2022/11/13 07:43:35;;;;;;;108.65;59.83;;;;;;;;;;4989083;28;20034;-77
2022/11/13 07:46:01;;;;;;;102.10;57.28;;;;;;;;;;4995048;28;20030;-77
2022/11/13 07:48:27;;;;;;;96.13;56.03;;;;;;;;;;4993241;28;20030;-77
2022/11/13 07:50:53;;;;;;;87.40;52.78;;;;;;;;;;4989440;28;20034;-77
2022/11/13 07:53:20;;;;;;;88.70;53.33;;;;;;;;;;4976241;28;20035;-77
2022/11/13 07:55:46;;;;;;;77.28;49.85;;;;;;;;;;4996406;28;20054;-77
2022/11/13 07:58:13;;;;;;;73.25;46.22;;;;;;;;;;4993232;28;20062;-77
2022/11/13 08:00:39;;;;;;;62.97;43.05;;;;;;;;;;4985932;28;20030;-77
2022/11/13 08:03:06;;;;;;;54.55;39.83;;;;;;;;;;4988654;28;20045;-77
2022/11/13 08:05:32;;;;;;;56.17;37.33;;;;;;;;;;4993177;28;20025;-77
2022/11/13 08:07:58;;;;;;;50.42;35.70;;;;;;;;;;4989862;28;20042;-77
2022/11/13 08:10:24;;;;;;;48.85;34.25;;;;;;;;;;4991846;28;20072;-77
2022/11/13 08:13:09;;;;;;;51.65;32.92;;;;;;;;;;4991448;28;20034;-76
2022/11/13 08:15:35;;;;;;;45.78;30.75;;;;;;;;;;4993900;28;20029;-76
2022/11/13 08:18:03;;;;;;;51.15;32.72;;;;;;;;;;4986169;28;20042;-77
2022/11/13 08:20:29;;;;;;;42.03;29.63;;;;;;;;;;4993870;28;20022;-76
2022/11/13 08:22:57;;;;;;;38.78;28.35;;;;;;;;;;4994161;28;20034;-77
2022/11/13 08:25:23;;;;;;;38.90;27.13;;;;;;;;;;4993975;28;20030;-76
2022/11/13 08:27:51;;;;;;;37.13;27.98;;;;;;;;;;4976700;28;20231;-76
2022/11/13 08:30:18;;;;;;;38.40;28.40;;;;;;;;;;4968270;28;20026;-76
2022/11/13 08:32:44;;;;;;;38.33;27.95;;;;;;;;;;4994284;28;20034;-76
2022/11/13 08:35:10;;;;;;;35.20;26.02;;;;;;;;;;4993059;28;20113;-76
2022/11/13 08:37:36;;;;;;;36.90;27.42;;;;;;;;;;4988687;28;20034;-77
2022/11/13 08:40:02;;;;;;;37.10;26.33;;;;;;;;;;4976415;28;20379;-77
2022/11/13 08:42:28;;;;;;;33.75;25.35;;;;;;;;;;4993462;28;20515;-76
2022/11/13 08:44:54;;;;;;;33.13;23.38;;;;;;;;;;4993857;28;20117;-77
2022/11/13 08:47:20;;;;;;;33.70;23.65;;;;;;;;;;4973534;28;20041;-77
2022/11/13 08:49:47;;;;;;;30.52;22.48;;;;;;;;;;4977482;28;20489;-76
2022/11/13 08:52:14;;;;;;;27.02;21.50;;;;;;;;;;4995200;28;20066;-77
2022/11/13 08:54:40;;;;;;;27.80;20.73;;;;;;;;;;4990346;28;20112;-76
2022/11/13 08:57:06;;;;;;;28.42;21.08;;;;;;;;;;4996641;28;20030;-76
2022/11/13 08:59:32;;;;;;;25.77;19.40;;;;;;;;;;4978841;28;20514;-75
2022/11/13 09:01:58;;;;;;;29.73;19.30;;;;;;;;;;4986791;28;20014;-75
2022/11/13 09:04:26;;;;;;;25.48;18.15;;;;;;;;;;5004938;28;20038;-76
2022/11/13 09:06:52;;;;;;;26.73;18.77;;;;;;;;;;5000220;28;20076;-76
2022/11/13 09:09:19;;;;;;;25.38;18.50;;;;;;;;;;4992816;28;20027;-75
2022/11/13 09:12:04;;;;;;;23.00;17.70;;;;;;;;;;5000932;28;20026;-76
2022/11/13 09:14:30;;;;;;;24.98;18.67;;;;;;;;;;5001866;28;20039;-76
2022/11/13 09:16:56;;;;;;;23.73;17.50;;;;;;;;;;4980027;28;20035;-77
2022/11/13 09:19:22;;;;;;;24.35;17.50;;;;;;;;;;5006520;28;20025;-74
2022/11/13 09:21:50;;;;;;;27.95;16.83;;;;;;;;;;5006347;28;20038;-75
2022/11/13 09:24:18;;;;;;;22.88;17.08;;;;;;;;;;4985265;28;20494;-77
2022/11/13 09:26:44;;;;;;;24.60;16.75;;;;;;;;;;5007065;28;20125;-77
2022/11/13 09:29:10;;;;;;;25.58;15.77;;;;;;;;;;4992691;28;20050;-75
2022/11/13 09:31:39;;;;;;;22.98;16.75;;;;;;;;;;5007741;28;20113;-76
2022/11/13 09:34:08;;;;;;;21.45;15.50;;;;;;;;;;4994149;28;20084;-77
2022/11/13 09:36:35;;;;;;;23.27;15.85;;;;;;;;;;5000561;28;20077;-77
2022/11/13 09:39:01;;;;;;;22.23;15.45;;;;;;;;;;5003676;28;20074;-77
2022/11/13 09:41:30;;;;;;;22.73;16.23;;;;;;;;;;5001400;28;20421;-77
2022/11/13 09:44:01;;;;;;;22.02;15.88;;;;;;;;;;4997245;28;20125;-77
2022/11/13 09:46:56;;;;;;;23.58;16.63;;;;;;;;;;4996850;28;20062;-77
2022/11/13 09:49:28;;;;;;;20.48;14.98;;;;;;;;;;4970791;28;20488;-77
2022/11/13 09:51:55;;;;;;;22.23;15.65;;;;;;;;;;4993156;28;20095;-77
2022/11/13 09:54:22;;;;;;;26.23;17.00;;;;;;;;;;4992352;28;20026;-77
2022/11/13 09:57:10;;;;;;;20.67;15.25;;;;;;;;;;4993443;28;20121;-77
2022/11/13 09:59:59;;;;;;;23.63;14.55;;;;;;;;;;4991774;28;20034;-77
2022/11/13 10:02:25;;;;;;;19.42;15.43;;;;;;;;;;4985917;28;20027;-78
2022/11/13 10:05:04;;;;;;;24.63;14.80;;;;;;;;;;4990852;28;20041;-77
2022/11/13 10:07:52;;;;;;;23.17;15.35;;;;;;;;;;4975365;28;20477;-77
2022/11/13 10:10:41;;;;;;;19.48;14.85;;;;;;;;;;4986300;28;20041;-76
2022/11/13 10:13:11;;;;;;;21.10;14.70;;;;;;;;;;4979617;28;20081;-76
2022/11/13 10:15:37;;;;;;;22.13;14.20;;;;;;;;;;4974769;28;20058;-76
2022/11/13 10:18:33;;;;;;;19.92;14.48;;;;;;;;;;4974720;28;20077;-76
2022/11/13 10:21:37;;;;;;;24.23;14.20;;;;;;;;;;4966236;28;20039;-76
2022/11/13 10:24:11;;;;;;;22.35;15.75;;;;;;;;;;4947958;29;20929;-77
2022/11/13 10:26:37;;;;;;;19.77;14.55;;;;;;;;;;4938559;28;20024;-77
2022/11/13 10:29:11;;;;;;;18.05;13.80;;;;;;;;;;4972571;28;20563;-77
2022/11/13 10:31:45;;;;;;;22.90;15.13;;;;;;;;;;4992557;28;20022;-78
2022/11/13 10:34:12;;;;;;;18.85;15.05;;;;;;;;;;4997830;28;20049;-78
2022/11/13 10:36:38;;;;;;;20.25;14.15;;;;;;;;;;4999224;28;20070;-77
2022/11/13 10:39:08;;;;;;;22.98;13.52;;;;;;;;;;4992123;28;20042;-75
2022/11/13 10:41:44;;;;;;;22.48;13.40;;;;;;;;;;4993024;28;20042;-77
2022/11/13 10:44:26;;;;;;;16.60;12.30;;;;;;;;;;4989462;28;20076;-78
2022/11/13 10:47:03;;;;;;;17.88;12.50;;;;;;;;;;4992198;28;20125;-76
2022/11/13 10:49:29;;;;;;;16.80;11.90;;;;;;;;;;4971990;28;20092;-76
2022/11/13 10:52:14;;;;;;;17.88;12.02;;;;;;;;;;4991806;28;20027;-77
2022/11/13 10:54:40;;;;;;;20.77;11.63;;;;;;;;;;4986116;28;20080;-77
2022/11/13 10:57:17;;;;;;;20.13;11.85;;;;;;;;;;4974179;28;20374;-78
2022/11/13 10:59:44;;;;;;;14.95;11.07;;;;;;;;;;4992409;28;20102;-75
2022/11/13 11:02:24;;;;;;;20.38;11.02;;;;;;;;;;4993000;28;20033;-77
2022/11/13 11:05:00;;;;;;;18.85;11.00;;;;;;;;;;4992096;28;20138;-77
2022/11/13 11:07:26;;;;;;;20.10;11.18;;;;;;;;;;4974123;28;20031;-77
2022/11/13 11:09:52;;;;;;;16.50;10.43;;;;;;;;;;4973201;28;20062;-77
2022/11/13 11:12:21;;;;;;;17.40;10.40;;;;;;;;;;4998393;28;20121;-76
2022/11/13 11:14:58;;;;;;;15.57;10.05;;;;;;;;;;4996231;28;20018;-78
2022/11/13 11:17:31;;;;;;;14.13;9.80;;;;;;;;;;4997196;28;20528;-77
2022/11/13 11:20:07;;;;;;;11.80;9.23;;;;;;;;;;4999482;28;20030;-77
2022/11/13 11:22:35;;;;;;;13.00;9.05;;;;;;;;;;4994865;28;20090;-78
2022/11/13 11:25:08;;;;;;;14.90;9.30;;;;;;;;;;4985481;28;20038;-77
2022/11/13 11:27:40;;;;;;;13.90;7.90;;;;;;;;;;4996654;28;20041;-78
2022/11/13 11:30:15;;;;;;;12.05;7.28;;;;;;;;;;5002451;28;20039;-77
2022/11/13 11:32:43;;;;;;;16.40;7.93;;;;;;;;;;5007780;28;20066;-77
2022/11/13 11:35:15;;;;;;;13.25;7.50;;;;;;;;;;4990637;28;20141;-76
2022/11/13 11:37:54;;;;;;;10.88;7.13;;;;;;;;;;5005086;28;20030;-75
2022/11/13 11:40:35;;;;;;;15.35;7.68;;;;;;;;;;5007440;28;20054;-77
2022/11/13 11:43:04;;;;;;;9.88;6.43;;;;;;;;;;5007996;28;20591;-77
2022/11/13 11:45:40;;;;;;;8.90;6.72;;;;;;;;;;4999997;28;20516;-77
2022/11/13 11:48:11;;;;;;;10.43;6.63;;;;;;;;;;4993852;28;20026;-78
2022/11/13 11:50:42;;;;;;;11.00;6.35;;;;;;;;;;4988853;28;20382;-78
2022/11/13 11:53:23;;;;;;;10.98;6.53;;;;;;;;;;4994734;28;20030;-78
2022/11/13 11:56:08;;;;;;;8.27;5.68;;;;;;;;;;4989912;28;20092;-79
2022/11/13 11:58:53;;;;;;;8.60;5.45;;;;;;;;;;4990588;28;20053;-77
2022/11/13 12:01:30;;;;;;;7.97;5.20;;;;;;;;;;4986960;28;20038;-78
2022/11/13 12:04:17;;;;;;;12.02;5.93;;;;;;;;;;4992425;28;20030;-78
2022/11/13 12:06:49;;;;;;;8.30;5.75;;;;;;;;;;4984109;28;20416;-81
2022/11/13 12:09:28;;;;;;;9.75;5.05;;;;;;;;;;4987397;28;20034;-78
2022/11/13 12:12:01;;;;;;;11.25;5.15;;;;;;;;;;4986709;28;20038;-79
2022/11/13 12:14:27;;;;;;;10.05;6.13;;;;;;;;;;4986815;28;20053;-79
2022/11/13 12:16:58;;;;;;;8.75;6.40;;;;;;;;;;4988270;28;20210;-79
2022/11/13 12:19:34;;;;;;;7.07;5.20;;;;;;;;;;4986578;28;20042;-79
2022/11/13 12:22:04;;;;;;;9.30;5.50;;;;;;;;;;4986946;28;20038;-79
2022/11/13 12:24:43;;;;;;;8.45;6.20;;;;;;;;;;4985772;28;20021;-79
2022/11/13 12:27:28;;;;;;;7.72;5.60;;;;;;;;;;4987069;28;20030;-79
2022/11/13 12:30:08;;;;;;;12.43;8.52;;;;;;;;;;4988973;28;20038;-72
2022/11/13 12:32:37;;;;;;;8.82;5.75;;;;;;;;;;4988411;28;20065;-71
2022/11/13 12:35:23;;;;;;;12.05;5.30;;;;;;;;;;4992383;28;20112;-71
2022/11/13 12:37:49;;;;;;;7.43;4.85;;;;;;;;;;4982395;28;20030;-71
2022/11/13 12:40:19;;;;;;;9.05;5.05;;;;;;;;;;4984684;28;20038;-71
2022/11/13 12:42:50;;;;;;;7.70;5.17;;;;;;;;;;4984308;28;20101;-71
2022/11/13 12:45:23;;;;;;;8.43;5.18;;;;;;;;;;4984147;28;20049;-71
2022/11/13 12:47:50;;;;;;;10.23;5.78;;;;;;;;;;4967953;28;20056;-71
2022/11/13 12:50:27;;;;;;;8.77;5.18;;;;;;;;;;4982618;28;20160;-71
2022/11/13 12:53:00;;;;;;;10.98;6.28;;;;;;;;;;4984496;28;20042;-71
2022/11/13 12:55:28;;;;;;;7.68;5.78;;;;;;;;;;4971063;28;20489;-72
2022/11/13 12:57:54;;;;;;;7.95;5.70;;;;;;;;;;4983271;28;20121;-72
2022/11/13 13:00:25;;;;;;;8.68;5.85;;;;;;;;;;4987220;28;20034;-71
2022/11/13 13:02:51;;;;;;;;;;;;;;;;;;4989251;28;20458;-71
2022/11/13 13:05:26;;;;;;;8.80;6.07;;;;;;;;;;4988497;28;19913;-71
2022/11/13 13:08:14;;;;;;;12.50;7.25;;;;;;;;;;4987554;28;20030;-71
2022/11/13 13:10:49;;;;;;;10.18;7.20;;;;;;;;;;4991578;28;20038;-71
2022/11/13 13:13:24;;;;;;;11.65;6.85;;;;;;;;;;4990762;28;20026;-71
2022/11/13 13:16:09;;;;;;;11.25;6.72;;;;;;;;;;4989709;28;20030;-70
2022/11/13 13:18:36;;;;;;;11.73;6.88;;;;;;;;;;4990709;28;20097;-71
2022/11/13 13:21:03;;;;;;;14.25;7.15;;;;;;;;;;4985155;28;20080;-71
2022/11/13 13:23:34;;;;;;;10.45;6.95;;;;;;;;;;4984844;28;20356;-71
2022/11/13 13:26:05;;;;;;;12.95;6.93;;;;;;;;;;4985013;28;20497;-71
2022/11/13 13:28:31;;;;;;;9.43;6.30;;;;;;;;;;4990429;28;20073;-71
2022/11/13 13:31:02;;;;;;;10.77;6.30;;;;;;;;;;4986713;28;20121;-71
2022/11/13 13:33:28;;;;;;;;;;;;;;;;;;4967005;28;20040;-71
2022/11/13 13:35:58;;;;;;;10.18;6.28;;;;;;;;;;4984467;28;20417;-71
2022/11/13 13:38:51;;;;;;;8.52;6.43;;;;;;;;;;4986263;28;20022;-71
2022/11/13 13:41:35;;;;;;;12.77;6.50;;;;;;;;;;4983232;28;20041;-71
2022/11/13 13:44:04;;;;;;;9.98;5.95;;;;;;;;;;4980660;28;20030;-71
2022/11/13 13:46:31;;;;;;;10.73;6.57;;;;;;;;;;4969261;28;20030;-71
2022/11/13 13:49:11;;;;;;;17.15;10.10;;;;;;;;;;4982455;28;20031;-70
2022/11/13 13:51:40;;;;;;;15.18;8.48;;;;;;;;;;4966747;28;20030;-70
2022/11/13 13:54:07;;;;;;;12.85;7.85;;;;;;;;;;4982132;28;20048;-71
2022/11/13 13:56:39;;;;;;;10.05;5.90;;;;;;;;;;4983031;28;20105;-71
2022/11/13 13:59:05;;;;;;;11.98;5.72;;;;;;;;;;4981983;28;20073;-71
2022/11/13 14:01:32;;;;;;;9.63;6.00;;;;;;;;;;4967156;28;20136;-71
2022/11/13 14:04:19;;;;;;;9.70;6.03;;;;;;;;;;4982562;28;20244;-71
2022/11/13 14:06:53;;;;;;;9.10;6.05;;;;;;;;;;4981149;28;20125;-69
2022/11/13 14:09:23;;;;;;;11.25;5.90;;;;;;;;;;4980746;28;20034;-72
2022/11/13 14:12:02;;;;;;;10.18;5.57;;;;;;;;;;4983129;28;20438;-69
2022/11/13 14:14:29;;;;;;;12.82;5.65;;;;;;;;;;4984647;28;20114;-70
2022/11/13 14:16:56;;;;;;;16.02;5.63;;;;;;;;;;4983338;28;20038;-70
2022/11/13 14:19:22;;;;;;;14.02;5.60;;;;;;;;;;4982863;28;20058;-69
2022/11/13 14:21:54;;;;;;;7.82;5.00;;;;;;;;;;4983064;28;20026;-70
2022/11/13 14:24:20;;;;;;;10.68;5.28;;;;;;;;;;4987304;28;20030;-71
2022/11/13 14:26:46;;;;;;;9.85;5.05;;;;;;;;;;4966009;28;20097;-72
2022/11/13 14:29:20;;;;;;;10.38;4.50;;;;;;;;;;4962936;28;20058;-70